createdAt,value
2018-07-24T00:01:57.736Z,21.40
2018-07-24T00:04:26.618Z,21.39
2018-07-24T00:06:57.904Z,21.36
2018-07-24T00:09:26.486Z,21.34
2018-07-24T00:11:55.056Z,21.31
2018-07-24T00:14:23.732Z,21.28
2018-07-24T00:16:52.729Z,21.28
2018-07-24T00:19:21.185Z,21.26
2018-07-24T00:21:50.283Z,21.24
2018-07-24T00:24:18.936Z,21.21
2018-07-24T00:26:47.387Z,21.16
2018-07-24T00:29:16.188Z,21.14
2018-07-24T00:31:44.919Z,21.14
2018-07-24T00:34:13.811Z,21.12
2018-07-24T00:36:42.237Z,21.09
2018-07-24T00:39:11.676Z,21.08
2018-07-24T00:41:40.660Z,21.06
2018-07-24T00:44:09.089Z,21.05
2018-07-24T00:46:37.543Z,21.04
2018-07-24T00:49:05.992Z,20.87
2018-07-24T00:51:34.637Z,21.02
2018-07-24T00:54:03.383Z,20.99
2018-07-24T00:56:31.804Z,20.97
2018-07-24T00:59:00.372Z,20.96
2018-07-24T01:01:29.080Z,20.96
2018-07-24T01:03:57.773Z,20.91
2018-07-24T01:06:26.289Z,20.85
2018-07-24T01:08:55.311Z,20.82
2018-07-24T01:11:24.120Z,20.79
2018-07-24T01:13:52.552Z,20.77
2018-07-24T01:16:21.433Z,20.77
2018-07-24T01:18:50.443Z,20.77
2018-07-24T01:21:19.037Z,20.77
2018-07-24T01:23:47.543Z,20.77
2018-07-24T01:26:16.035Z,20.76
2018-07-24T01:28:44.883Z,20.72
2018-07-24T01:31:13.769Z,20.71
2018-07-24T01:33:42.217Z,20.70
2018-07-24T01:36:11.460Z,20.67
2018-07-24T01:38:40.761Z,20.68
2018-07-24T01:41:09.209Z,20.71
2018-07-24T01:43:37.649Z,20.76
2018-07-24T01:46:06.294Z,20.80
2018-07-24T01:48:34.737Z,20.81
2018-07-24T01:51:03.161Z,20.81
2018-07-24T01:53:32.265Z,20.76
2018-07-24T01:56:01.047Z,20.70
2018-07-24T01:58:29.467Z,20.67
2018-07-24T02:01:02.785Z,20.65
2018-07-24T02:03:32.086Z,20.64
2018-07-24T02:06:00.629Z,20.63
2018-07-24T02:08:29.065Z,20.61
2018-07-24T02:10:57.789Z,20.61
2018-07-24T02:13:26.589Z,20.58
2018-07-24T02:15:55.063Z,20.57
2018-07-24T02:18:23.497Z,20.55
2018-07-24T02:20:52.790Z,20.51
2018-07-24T02:23:21.277Z,20.51
2018-07-24T02:25:49.797Z,20.50
2018-07-24T02:28:18.345Z,20.48
2018-07-24T02:30:46.840Z,20.47
2018-07-24T02:33:15.885Z,20.47
2018-07-24T02:35:44.805Z,20.48
2018-07-24T02:38:13.758Z,20.48
2018-07-24T02:40:42.205Z,20.47
2018-07-24T02:43:11.025Z,20.45
2018-07-24T02:45:39.694Z,20.45
2018-07-24T02:48:08.450Z,20.45
2018-07-24T02:50:43.564Z,20.48
2018-07-24T02:53:12.010Z,20.48
2018-07-24T02:55:40.469Z,20.49
2018-07-24T02:58:09.474Z,20.49
2018-07-24T03:00:37.890Z,20.50
2018-07-24T03:03:06.812Z,20.52
2018-07-24T03:05:35.304Z,20.55
2018-07-24T03:08:03.747Z,20.51
2018-07-24T03:10:32.719Z,20.45
2018-07-24T03:13:01.185Z,20.41
2018-07-24T03:15:29.628Z,20.44
2018-07-24T03:17:58.196Z,20.46
2018-07-24T03:20:27.685Z,20.46
2018-07-24T03:22:56.180Z,20.44
2018-07-24T03:25:24.665Z,20.47
2018-07-24T03:27:53.241Z,20.47
2018-07-24T03:30:21.681Z,20.49
2018-07-24T03:32:50.111Z,20.50
2018-07-24T03:35:18.749Z,20.51
2018-07-24T03:37:47.612Z,20.52
2018-07-24T03:40:16.422Z,20.52
2018-07-24T03:42:44.882Z,20.55
2018-07-24T03:45:13.501Z,20.56
2018-07-24T03:47:41.933Z,20.57
2018-07-24T03:50:10.706Z,20.59
2018-07-24T03:52:39.750Z,20.63
2018-07-24T03:55:08.425Z,20.68
2018-07-24T03:57:36.993Z,20.71
2018-07-24T04:00:06.074Z,20.73
2018-07-24T04:02:34.757Z,20.76
2018-07-24T04:05:03.294Z,20.79
2018-07-24T04:07:31.757Z,20.81
2018-07-24T04:10:00.281Z,20.84
2018-07-24T04:12:28.853Z,20.72
2018-07-24T04:14:57.459Z,20.88
2018-07-24T04:17:25.893Z,20.90
2018-07-24T04:19:54.441Z,20.96
2018-07-24T04:22:22.900Z,21.01
2018-07-24T04:24:51.359Z,21.04
2018-07-24T04:27:20.165Z,21.08
2018-07-24T04:29:49.088Z,21.16
2018-07-24T04:32:17.568Z,21.19
2018-07-24T04:34:46.350Z,21.22
2018-07-24T04:37:15.810Z,21.25
2018-07-24T04:39:44.267Z,21.28
2018-07-24T04:42:12.929Z,21.33
2018-07-24T04:44:41.809Z,21.40
2018-07-24T04:47:10.661Z,21.44
2018-07-24T04:49:39.160Z,21.45
2018-07-24T04:52:07.635Z,21.47
2018-07-24T04:54:36.664Z,21.50
2018-07-24T04:57:05.211Z,21.57
2018-07-24T04:59:33.896Z,21.61
2018-07-24T05:02:02.609Z,21.64
2018-07-24T05:04:31.069Z,21.69
2018-07-24T05:06:59.571Z,21.69
2018-07-24T05:09:28.396Z,21.70
2018-07-24T05:11:57.024Z,21.75
2018-07-24T05:14:25.525Z,21.80
2018-07-24T05:16:54.070Z,21.84
2018-07-24T05:19:22.737Z,21.88
2018-07-24T05:21:51.174Z,21.92
2018-07-24T05:24:19.614Z,21.94
2018-07-24T05:26:48.525Z,22.00
2018-07-24T05:29:17.033Z,22.07
2018-07-24T05:31:45.783Z,22.12
2018-07-24T05:34:14.348Z,22.17
2018-07-24T05:36:42.774Z,22.22
2018-07-24T05:39:12.531Z,22.25
2018-07-24T05:41:41.640Z,22.33
2018-07-24T05:44:10.807Z,22.39
2018-07-24T05:46:39.300Z,22.45
2018-07-24T05:49:08.339Z,22.49
2018-07-24T05:51:37.223Z,22.56
2018-07-24T05:54:05.659Z,22.60
2018-07-24T05:56:34.109Z,22.55
2018-07-24T05:59:02.752Z,22.73
2018-07-24T06:01:31.186Z,22.80
2018-07-24T06:03:59.741Z,22.90
2018-07-24T06:06:28.406Z,22.98
2018-07-24T06:08:56.941Z,23.04
2018-07-24T06:11:25.484Z,23.10
2018-07-24T06:13:53.916Z,23.14
2018-07-24T06:16:22.597Z,23.22
2018-07-24T06:18:51.217Z,23.31
2018-07-24T06:21:19.669Z,23.39
2018-07-24T06:23:48.200Z,23.47
2018-07-24T06:26:17.034Z,23.55
2018-07-24T06:28:45.516Z,23.59
2018-07-24T06:31:13.958Z,23.66
2018-07-24T06:33:43.042Z,23.74
2018-07-24T06:36:11.480Z,23.84
2018-07-24T06:38:39.914Z,23.90
2018-07-24T06:41:08.673Z,23.97
2018-07-24T06:43:37.122Z,24.05
2018-07-24T06:46:05.809Z,24.10
2018-07-24T06:48:34.781Z,24.18
2018-07-24T06:51:03.595Z,24.25
2018-07-24T06:53:32.009Z,24.32
2018-07-24T06:56:01.120Z,24.38
2018-07-24T06:58:29.890Z,24.46
2018-07-24T07:00:58.650Z,24.56
2018-07-24T07:03:27.427Z,24.67
2018-07-24T07:05:56.063Z,24.71
2018-07-24T07:08:24.589Z,24.80
2018-07-24T07:10:53.065Z,24.90
2018-07-24T07:13:21.658Z,25.00
2018-07-24T07:15:50.077Z,25.15
2018-07-24T07:18:21.566Z,25.29
2018-07-24T07:20:50.191Z,25.45
2018-07-24T07:23:18.955Z,25.65
2018-07-24T07:25:47.438Z,25.76
2018-07-24T07:28:15.966Z,25.87
2018-07-24T07:30:44.466Z,25.99
2018-07-24T07:33:13.216Z,26.09
2018-07-24T07:35:41.729Z,26.33
2018-07-24T07:38:10.176Z,26.85
2018-07-24T07:40:39.305Z,27.64
2018-07-24T07:43:08.170Z,28.06
2018-07-24T07:45:36.885Z,28.47
2018-07-24T07:48:05.919Z,28.56
2018-07-24T07:50:34.765Z,28.97
2018-07-24T07:53:03.283Z,29.27
2018-07-24T07:55:31.997Z,29.51
2018-07-24T07:58:00.817Z,29.52
2018-07-24T08:00:29.329Z,29.83
2018-07-24T08:02:58.458Z,30.18
2018-07-24T08:05:27.010Z,30.50
2018-07-24T08:07:55.509Z,30.45
2018-07-24T08:10:24.076Z,30.60
2018-07-24T08:12:52.550Z,30.28
2018-07-24T08:15:21.452Z,30.09
2018-07-24T08:17:50.273Z,30.81
2018-07-24T08:20:18.703Z,31.64
2018-07-24T08:22:47.293Z,31.75
2018-07-24T08:25:15.937Z,31.87
2018-07-24T08:27:44.443Z,31.56
2018-07-24T08:30:13.091Z,32.05
2018-07-24T08:32:41.693Z,32.74
2018-07-24T08:35:10.142Z,33.20
2018-07-24T08:37:38.813Z,33.40
2018-07-24T08:40:07.409Z,33.85
2018-07-24T08:42:35.877Z,33.76
2018-07-24T08:45:05.361Z,32.60
2018-07-24T08:47:34.327Z,31.58
2018-07-24T08:50:09.882Z,31.18
2018-07-24T08:52:38.669Z,31.08
2018-07-24T08:55:07.350Z,31.73
2018-07-24T08:57:36.064Z,32.54
2018-07-24T09:00:05.317Z,33.38
2018-07-24T09:02:33.744Z,34.02
2018-07-24T09:05:02.270Z,34.58
2018-07-24T09:07:30.833Z,34.72
2018-07-24T09:09:59.255Z,35.22
2018-07-24T09:12:28.161Z,35.78
2018-07-24T09:14:57.913Z,36.23
2018-07-24T09:17:26.357Z,36.58
2018-07-24T09:19:56.299Z,36.53
2018-07-24T09:22:25.264Z,35.83
2018-07-24T09:24:54.018Z,35.75
2018-07-24T09:27:22.709Z,35.64
2018-07-24T09:29:51.599Z,35.68
2018-07-24T09:32:20.069Z,36.06
2018-07-24T09:34:48.729Z,36.29
2018-07-24T09:37:17.620Z,36.16
2018-07-24T09:39:46.066Z,35.83
2018-07-24T09:42:14.869Z,35.22
2018-07-24T09:44:43.773Z,34.49
2018-07-24T09:47:12.202Z,33.96
2018-07-24T09:49:41.146Z,33.32
2018-07-24T09:52:09.934Z,32.44
2018-07-24T09:54:38.387Z,31.69
2018-07-24T09:57:06.913Z,31.23
2018-07-24T09:59:35.622Z,30.71
2018-07-24T10:02:04.083Z,30.63
2018-07-24T10:04:32.665Z,30.73
2018-07-24T10:07:01.843Z,30.80
2018-07-24T10:09:30.642Z,30.78
2018-07-24T10:11:59.113Z,30.95
2018-07-24T10:14:27.996Z,31.08
2018-07-24T10:16:56.754Z,31.21
2018-07-24T10:19:25.218Z,31.54
2018-07-24T10:21:54.405Z,32.34
2018-07-24T10:24:23.100Z,32.49
2018-07-24T10:26:51.946Z,32.68
2018-07-24T10:29:20.654Z,32.84
2018-07-24T10:31:49.106Z,32.68
2018-07-24T10:34:18.257Z,32.50
2018-07-24T10:36:46.761Z,32.65
2018-07-24T10:39:15.481Z,32.75
2018-07-24T10:41:44.485Z,32.98
2018-07-24T10:44:13.355Z,33.55
2018-07-24T10:46:41.896Z,33.91
2018-07-24T10:49:10.631Z,34.56
2018-07-24T10:51:39.922Z,35.06
2018-07-24T10:54:08.682Z,34.97
2018-07-24T10:56:37.122Z,34.54
2018-07-24T10:59:06.181Z,33.98
2018-07-24T11:01:35.029Z,34.20
2018-07-24T11:04:03.644Z,34.65
2018-07-24T11:06:32.478Z,34.67
2018-07-24T11:09:01.049Z,34.39
2018-07-24T11:11:30.249Z,33.95
2018-07-24T11:13:59.118Z,33.46
2018-07-24T11:16:27.560Z,32.92
2018-07-24T11:18:56.038Z,32.57
2018-07-24T11:23:52.518Z,32.21
2018-07-24T11:26:20.957Z,32.01
2018-07-24T11:28:49.730Z,31.77
2018-07-24T11:31:18.215Z,31.54
2018-07-24T11:33:46.657Z,31.16
2018-07-24T11:36:15.492Z,30.92
2018-07-24T11:38:44.243Z,30.70
2018-07-24T11:41:12.723Z,30.51
2018-07-24T11:43:41.520Z,30.40
2018-07-24T11:46:10.297Z,30.35
2018-07-24T11:48:38.965Z,30.39
2018-07-24T11:51:07.657Z,30.31
2018-07-24T11:53:36.481Z,30.28
2018-07-24T11:56:05.017Z,30.38
2018-07-24T11:58:33.591Z,30.33
2018-07-24T12:01:02.062Z,30.39
2018-07-24T12:03:30.814Z,30.45
2018-07-24T12:05:59.676Z,30.49
2018-07-24T12:08:28.301Z,30.57
2018-07-24T12:10:57.227Z,30.92
2018-07-24T12:13:25.862Z,31.45
2018-07-24T12:15:55.075Z,31.77
2018-07-24T12:18:24.468Z,32.50
2018-07-24T12:20:53.599Z,33.01
2018-07-24T12:23:22.309Z,33.46
2018-07-24T12:25:51.101Z,34.14
2018-07-24T12:28:20.093Z,34.61
2018-07-24T12:30:48.538Z,35.00
2018-07-24T12:33:17.261Z,35.17
2018-07-24T12:35:46.779Z,35.64
2018-07-24T12:38:15.249Z,35.86
2018-07-24T12:40:44.666Z,35.92
2018-07-24T12:43:13.317Z,36.24
2018-07-24T12:45:41.737Z,36.62
2018-07-24T12:48:10.198Z,36.47
2018-07-24T12:50:38.822Z,35.74
2018-07-24T12:53:07.541Z,35.06
2018-07-24T12:55:36.373Z,34.39
2018-07-24T12:58:05.236Z,33.96
2018-07-24T13:00:34.117Z,33.60
2018-07-24T13:03:02.558Z,33.22
2018-07-24T13:05:31.301Z,32.96
2018-07-24T13:07:59.962Z,32.80
2018-07-24T13:10:28.650Z,32.55
2018-07-24T13:12:57.295Z,32.35
2018-07-24T13:15:25.737Z,32.11
2018-07-24T13:17:55.481Z,31.91
2018-07-24T13:20:25.446Z,31.70
2018-07-24T13:22:53.922Z,31.47
2018-07-24T13:25:22.945Z,31.71
2018-07-24T13:27:51.826Z,31.78
2018-07-24T13:30:20.301Z,31.99
2018-07-24T13:32:49.173Z,32.80
2018-07-24T13:35:17.981Z,33.82
2018-07-24T13:37:46.430Z,34.69
2018-07-24T13:40:15.349Z,35.28
2018-07-24T13:42:43.993Z,35.91
2018-07-24T13:45:12.441Z,36.56
2018-07-24T13:47:40.872Z,36.84
2018-07-24T13:50:09.675Z,37.15
2018-07-24T13:52:38.134Z,37.32
2018-07-24T13:55:06.704Z,37.62
2018-07-24T13:57:36.277Z,37.91
2018-07-24T14:00:05.968Z,37.83
2018-07-24T14:02:34.821Z,37.82
2018-07-24T14:05:03.961Z,38.19
2018-07-24T14:07:32.430Z,38.70
2018-07-24T14:10:00.882Z,38.43
2018-07-24T14:12:30.049Z,37.69
2018-07-24T14:14:59.110Z,36.79
2018-07-24T14:17:27.565Z,36.23
2018-07-24T14:19:56.373Z,35.04
2018-07-24T14:22:24.994Z,34.21
2018-07-24T14:24:53.437Z,33.49
2018-07-24T14:27:22.429Z,32.97
2018-07-24T14:29:50.971Z,32.53
2018-07-24T14:32:19.398Z,32.12
2018-07-24T14:34:48.269Z,31.89
2018-07-24T14:37:16.979Z,31.70
2018-07-24T14:39:45.411Z,31.59
2018-07-24T14:42:14.274Z,31.49
2018-07-24T14:44:43.189Z,32.14
2018-07-24T14:47:12.420Z,33.18
2018-07-24T14:49:41.212Z,33.95
2018-07-24T14:52:09.662Z,34.51
2018-07-24T14:54:38.331Z,34.83
2018-07-24T14:57:07.346Z,35.17
2018-07-24T14:59:36.185Z,35.45
2018-07-24T15:02:04.785Z,35.23
2018-07-24T15:04:33.742Z,34.29
2018-07-24T15:07:02.245Z,33.97
2018-07-24T15:09:31.207Z,34.42
2018-07-24T15:12:00.087Z,33.90
2018-07-24T15:14:28.526Z,32.80
2018-07-24T15:16:57.167Z,32.34
2018-07-24T15:19:26.333Z,32.15
2018-07-24T15:21:54.821Z,32.24
2018-07-24T15:24:23.538Z,32.17
2018-07-24T15:26:52.417Z,32.70
2018-07-24T15:29:21.082Z,33.50
2018-07-24T15:31:49.682Z,34.27
2018-07-24T15:34:18.403Z,34.53
2018-07-24T15:36:46.951Z,34.73
2018-07-24T15:39:15.413Z,34.72
2018-07-24T15:41:44.702Z,34.91
2018-07-24T15:44:13.394Z,35.59
2018-07-24T15:46:41.935Z,35.13
2018-07-24T15:49:10.461Z,34.12
2018-07-24T15:51:38.897Z,34.35
2018-07-24T15:54:07.469Z,34.94
2018-07-24T15:56:36.313Z,35.50
2018-07-24T15:59:04.801Z,36.21
2018-07-24T16:01:33.734Z,36.76
2018-07-24T16:04:02.689Z,37.00
2018-07-24T16:06:31.437Z,36.90
2018-07-24T16:09:01.416Z,36.24
2018-07-24T16:11:30.086Z,34.90
2018-07-24T16:13:58.509Z,34.09
2018-07-24T16:16:26.958Z,33.54
2018-07-24T16:18:56.315Z,32.98
2018-07-24T16:21:25.733Z,33.26
2018-07-24T16:23:54.689Z,33.33
2018-07-24T16:26:23.604Z,33.17
2018-07-24T16:28:52.346Z,33.39
2018-07-24T16:31:21.149Z,33.21
2018-07-24T16:33:50.017Z,33.63
2018-07-24T16:36:18.795Z,33.76
2018-07-24T16:38:47.234Z,33.64
2018-07-24T16:41:15.901Z,33.85
2018-07-24T16:43:44.797Z,34.20
2018-07-24T16:46:13.520Z,34.28
2018-07-24T16:48:42.406Z,34.14
2018-07-24T16:51:10.866Z,34.07
2018-07-24T16:53:39.530Z,33.97
2018-07-24T16:56:08.139Z,33.97
2018-07-24T16:58:36.633Z,34.14
2018-07-24T17:01:05.954Z,33.70
2018-07-24T17:03:34.691Z,33.73
2018-07-24T17:06:03.144Z,33.87
2018-07-24T17:08:31.593Z,33.87
2018-07-24T17:11:00.227Z,33.73
2018-07-24T17:13:28.757Z,33.13
2018-07-24T17:15:57.342Z,32.78
2018-07-24T17:18:25.994Z,32.33
2018-07-24T17:20:54.853Z,31.69
2018-07-24T17:23:23.471Z,31.17
2018-07-24T17:25:52.391Z,30.74
2018-07-24T17:28:21.450Z,30.35
2018-07-24T17:30:49.930Z,29.97
2018-07-24T17:33:19.037Z,29.73
2018-07-24T17:35:48.082Z,29.45
2018-07-24T17:38:16.818Z,29.21
2018-07-24T17:40:45.736Z,29.00
2018-07-24T17:43:14.181Z,28.81
2018-07-24T17:45:42.883Z,28.64
2018-07-24T17:48:11.498Z,28.54
2018-07-24T17:50:39.923Z,28.43
2018-07-24T17:53:08.446Z,28.31
2018-07-24T17:55:37.836Z,28.15
2018-07-24T17:58:06.273Z,27.60
2018-07-24T18:00:34.717Z,27.99
2018-07-24T18:03:03.758Z,27.88
2018-07-24T18:05:32.548Z,27.84
2018-07-24T18:08:01.316Z,27.75
2018-07-24T18:10:30.333Z,27.66
2018-07-24T18:12:59.400Z,27.59
2018-07-24T18:15:28.203Z,27.53
2018-07-24T18:17:56.721Z,27.43
2018-07-24T18:20:25.358Z,27.37
2018-07-24T18:22:53.993Z,27.27
2018-07-24T18:25:22.653Z,27.19
2018-07-24T18:27:51.115Z,27.09
2018-07-24T18:30:19.889Z,27.06
2018-07-24T18:32:48.565Z,27.02
2018-07-24T18:35:17.002Z,26.98
2018-07-24T18:37:45.901Z,26.91
2018-07-24T18:40:14.765Z,26.85
2018-07-24T18:42:43.432Z,26.83
2018-07-24T18:45:12.241Z,26.73
2018-07-24T18:47:40.990Z,26.65
2018-07-24T18:50:09.499Z,26.57
2018-07-24T18:52:37.961Z,26.50
2018-07-24T18:55:06.469Z,26.45
2018-07-24T18:57:34.927Z,26.36
2018-07-24T19:00:03.424Z,26.30
2018-07-24T19:02:32.228Z,26.28
2018-07-24T19:05:00.734Z,26.24
2018-07-24T19:07:29.729Z,26.18
2018-07-24T19:09:58.633Z,26.11
2018-07-24T19:12:27.104Z,26.02
2018-07-24T19:14:56.229Z,25.95
2018-07-24T19:17:25.521Z,25.86
2018-07-24T19:19:54.733Z,25.80
2018-07-24T19:22:23.198Z,25.72
2018-07-24T19:24:52.222Z,25.67
2018-07-24T19:27:20.851Z,25.62
2018-07-24T19:29:49.377Z,25.56
2018-07-24T19:32:17.854Z,25.50
2018-07-24T19:34:46.618Z,25.45
2018-07-24T19:37:15.240Z,25.39
2018-07-24T19:39:44.546Z,25.32
2018-07-24T19:42:13.028Z,25.26
2018-07-24T19:44:42.036Z,25.19
2018-07-24T19:47:11.803Z,25.14
2018-07-24T19:49:40.301Z,25.11
2018-07-24T19:52:08.917Z,25.05
2018-07-24T19:54:38.096Z,25.00
2018-07-24T19:57:06.602Z,24.95
2018-07-24T19:59:35.125Z,24.89
2018-07-24T20:02:03.989Z,24.84
2018-07-24T20:04:32.662Z,24.75
2018-07-24T20:07:01.115Z,24.69
2018-07-24T20:09:33.221Z,24.03
2018-07-24T20:12:02.721Z,24.60
2018-07-24T20:14:31.670Z,24.52
2018-07-24T20:17:00.116Z,24.47
2018-07-24T20:19:28.753Z,24.41
2018-07-24T20:21:57.644Z,24.34
2018-07-24T20:24:27.341Z,24.30
2018-07-24T20:26:56.173Z,24.23
2018-07-24T20:29:25.247Z,24.15
2018-07-24T20:31:53.738Z,24.08
2018-07-24T20:34:22.189Z,24.07
2018-07-24T20:36:51.889Z,24.05
2018-07-24T20:39:20.567Z,24.02
2018-07-24T20:41:49.012Z,23.98
2018-07-24T20:44:18.790Z,23.88
2018-07-24T20:46:47.890Z,23.83
2018-07-24T20:49:16.325Z,23.81
2018-07-24T20:51:45.234Z,23.76
2018-07-24T20:54:14.058Z,23.73
2018-07-24T20:56:42.566Z,23.68
2018-07-24T20:59:11.706Z,23.64
2018-07-24T21:01:40.409Z,23.57
2018-07-24T21:04:09.140Z,23.53
2018-07-24T21:06:38.198Z,23.50
2018-07-24T21:09:09.973Z,23.44
2018-07-24T21:11:40.173Z,23.41
2018-07-24T21:14:09.924Z,23.40
2018-07-24T21:16:39.315Z,23.33
2018-07-24T21:19:08.382Z,23.30
2018-07-24T21:21:38.419Z,23.29
2018-07-24T21:24:07.290Z,23.25
2018-07-24T21:26:35.795Z,23.23
2018-07-24T21:29:04.344Z,23.21
2018-07-24T21:31:32.907Z,23.19
2018-07-24T21:34:01.366Z,23.17
2018-07-24T21:36:30.306Z,23.14
2018-07-24T21:38:59.513Z,23.11
2018-07-24T21:41:28.017Z,23.07
2018-07-24T21:43:56.631Z,23.04
2018-07-24T21:46:25.299Z,22.98
2018-07-24T21:48:53.844Z,22.96
2018-07-24T21:51:22.441Z,22.92
2018-07-24T21:53:51.588Z,22.92
2018-07-24T21:56:20.027Z,22.86
2018-07-24T21:58:48.737Z,22.81
2018-07-24T22:01:17.261Z,22.80
2018-07-24T22:03:45.702Z,22.79
2018-07-24T22:06:14.731Z,22.76
2018-07-24T22:08:43.374Z,22.74
2018-07-24T22:11:11.874Z,22.72
2018-07-24T22:16:08.043Z,22.61
2018-07-24T22:18:37.913Z,22.59
2018-07-24T22:21:06.957Z,22.57
2018-07-24T22:23:35.787Z,22.52
2018-07-24T22:26:04.614Z,22.50
2018-07-24T22:28:33.457Z,22.48
2018-07-24T22:31:01.942Z,22.47
2018-07-24T22:33:30.705Z,22.43
2018-07-24T22:35:59.618Z,22.43
2018-07-24T22:38:28.107Z,22.43
2018-07-24T22:40:56.760Z,22.39
2018-07-24T22:43:25.869Z,22.34
2018-07-24T22:45:55.168Z,22.33
2018-07-24T22:48:24.617Z,22.31
2018-07-24T22:50:53.472Z,22.28
2018-07-24T22:53:22.039Z,22.27
2018-07-24T22:55:50.482Z,22.25
2018-07-24T22:58:19.399Z,22.24
2018-07-24T23:00:47.886Z,22.21
2018-07-24T23:03:16.324Z,22.19
2018-07-24T23:05:45.239Z,22.16
2018-07-24T23:08:13.725Z,22.13
2018-07-24T23:10:42.253Z,22.11
2018-07-24T23:13:11.021Z,22.09
2018-07-24T23:15:39.857Z,22.06
2018-07-24T23:18:08.294Z,22.07
2018-07-24T23:20:37.693Z,22.07
2018-07-24T23:23:06.997Z,22.06
2018-07-24T23:25:35.462Z,22.04
2018-07-24T23:28:03.905Z,22.03
2018-07-24T23:30:33.839Z,22.00
2018-07-24T23:33:02.477Z,21.97
2018-07-24T23:35:30.933Z,21.94
2018-07-24T23:37:59.771Z,21.91
2018-07-24T23:40:28.521Z,21.91
2018-07-24T23:42:57.803Z,21.87
2018-07-24T23:45:26.291Z,21.84
2018-07-24T23:47:55.465Z,21.81
2018-07-24T23:50:24.775Z,21.79
2018-07-24T23:52:53.439Z,21.77
2018-07-24T23:55:21.865Z,21.76
2018-07-24T23:57:51.350Z,21.74
